sensor_id;sensor_type;location;lat;lon;timestamp;temperature;humidity
8953;DHT22;4511;50.890;8.054;2023-04-24T00:01:29;11.10;99.90
8953;DHT22;4511;50.890;8.054;2023-04-24T00:03:56;11.10;99.90
8953;DHT22;4511;50.890;8.054;2023-04-24T00:06:25;11.00;99.90
8953;DHT22;4511;50.890;8.054;2023-04-24T00:08:58;11.00;99.90
8953;DHT22;4511;50.890;8.054;2023-04-24T00:11:26;11.00;99.90
8953;DHT22;4511;50.890;8.054;2023-04-24T00:13:53;11.00;99.90
8953;DHT22;4511;50.890;8.054;2023-04-24T00:16:20;11.00;99.90
8953;DHT22;4511;50.890;8.054;2023-04-24T00:18:47;11.00;99.90
8953;DHT22;4511;50.890;8.054;2023-04-24T00:21:14;11.00;99.90
8953;DHT22;4511;50.890;8.054;2023-04-24T00:23:41;11.00;99.90
8953;DHT22;4511;50.890;8.054;2023-04-24T00:26:09;11.00;99.90
8953;DHT22;4511;50.890;8.054;2023-04-24T00:28:37;11.00;99.90
8953;DHT22;4511;50.890;8.054;2023-04-24T00:31:04;11.00;99.90
8953;DHT22;4511;50.890;8.054;2023-04-24T00:33:30;11.10;99.90
8953;DHT22;4511;50.890;8.054;2023-04-24T00:35:57;11.10;99.90
8953;DHT22;4511;50.890;8.054;2023-04-24T00:38:24;11.00;99.90
8953;DHT22;4511;50.890;8.054;2023-04-24T00:40:51;11.00;99.90
8953;DHT22;4511;50.890;8.054;2023-04-24T00:43:19;11.00;99.90
8953;DHT22;4511;50.890;8.054;2023-04-24T00:45:47;11.00;99.90
8953;DHT22;4511;50.890;8.054;2023-04-24T00:48:14;11.00;99.90
8953;DHT22;4511;50.890;8.054;2023-04-24T00:50:42;11.00;99.90
8953;DHT22;4511;50.890;8.054;2023-04-24T00:53:08;11.00;99.90
8953;DHT22;4511;50.890;8.054;2023-04-24T00:55:35;10.90;99.90
8953;DHT22;4511;50.890;8.054;2023-04-24T00:58:04;11.00;99.90
8953;DHT22;4511;50.890;8.054;2023-04-24T01:00:31;10.90;99.90
8953;DHT22;4511;50.890;8.054;2023-04-24T01:02:59;10.90;99.90
8953;DHT22;4511;50.890;8.054;2023-04-24T01:05:28;10.90;99.90
8953;DHT22;4511;50.890;8.054;2023-04-24T01:07:55;10.80;99.90
8953;DHT22;4511;50.890;8.054;2023-04-24T01:10:24;10.80;99.90
8953;DHT22;4511;50.890;8.054;2023-04-24T01:12:51;10.80;99.90
8953;DHT22;4511;50.890;8.054;2023-04-24T01:15:19;10.80;99.90
8953;DHT22;4511;50.890;8.054;2023-04-24T01:17:45;10.80;99.90
8953;DHT22;4511;50.890;8.054;2023-04-24T01:20:14;10.70;99.90
8953;DHT22;4511;50.890;8.054;2023-04-24T01:22:42;10.80;99.90
8953;DHT22;4511;50.890;8.054;2023-04-24T01:25:09;10.70;99.90
8953;DHT22;4511;50.890;8.054;2023-04-24T01:27:36;10.80;99.90
8953;DHT22;4511;50.890;8.054;2023-04-24T01:30:03;10.60;99.90
8953;DHT22;4511;50.890;8.054;2023-04-24T01:32:32;10.60;99.90
8953;DHT22;4511;50.890;8.054;2023-04-24T01:34:59;10.40;99.90
8953;DHT22;4511;50.890;8.054;2023-04-24T01:37:26;10.40;99.90
8953;DHT22;4511;50.890;8.054;2023-04-24T01:39:54;10.40;99.90
8953;DHT22;4511;50.890;8.054;2023-04-24T01:42:21;10.30;99.90
8953;DHT22;4511;50.890;8.054;2023-04-24T01:44:49;10.20;99.90
8953;DHT22;4511;50.890;8.054;2023-04-24T01:47:16;10.20;99.90
8953;DHT22;4511;50.890;8.054;2023-04-24T01:49:43;10.30;99.90
8953;DHT22;4511;50.890;8.054;2023-04-24T01:52:12;10.30;99.90
8953;DHT22;4511;50.890;8.054;2023-04-24T01:54:38;10.30;99.90
8953;DHT22;4511;50.890;8.054;2023-04-24T01:57:07;10.30;99.90
8953;DHT22;4511;50.890;8.054;2023-04-24T01:59:34;10.40;99.90
8953;DHT22;4511;50.890;8.054;2023-04-24T02:02:02;10.40;99.90
8953;DHT22;4511;50.890;8.054;2023-04-24T02:04:29;10.50;99.90
8953;DHT22;4511;50.890;8.054;2023-04-24T02:06:55;10.50;99.90
8953;DHT22;4511;50.890;8.054;2023-04-24T02:09:22;10.50;99.90
8953;DHT22;4511;50.890;8.054;2023-04-24T02:11:49;10.50;99.90
8953;DHT22;4511;50.890;8.054;2023-04-24T02:14:17;10.40;99.90
8953;DHT22;4511;50.890;8.054;2023-04-24T02:16:44;10.40;99.90
8953;DHT22;4511;50.890;8.054;2023-04-24T02:19:11;10.40;99.90
8953;DHT22;4511;50.890;8.054;2023-04-24T02:21:37;10.40;99.90
8953;DHT22;4511;50.890;8.054;2023-04-24T02:24:04;10.40;99.90
8953;DHT22;4511;50.890;8.054;2023-04-24T02:26:31;10.30;99.90
8953;DHT22;4511;50.890;8.054;2023-04-24T02:28:58;10.40;99.90
8953;DHT22;4511;50.890;8.054;2023-04-24T02:31:26;10.30;99.90
8953;DHT22;4511;50.890;8.054;2023-04-24T02:33:53;10.30;99.90
8953;DHT22;4511;50.890;8.054;2023-04-24T02:36:20;10.30;99.90
8953;DHT22;4511;50.890;8.054;2023-04-24T02:38:46;10.20;99.90
8953;DHT22;4511;50.890;8.054;2023-04-24T02:41:13;10.20;99.90
8953;DHT22;4511;50.890;8.054;2023-04-24T02:43:40;10.20;99.90
8953;DHT22;4511;50.890;8.054;2023-04-24T02:46:07;10.20;99.90
8953;DHT22;4511;50.890;8.054;2023-04-24T02:48:35;10.20;99.90
8953;DHT22;4511;50.890;8.054;2023-04-24T02:51:01;10.10;99.90
8953;DHT22;4511;50.890;8.054;2023-04-24T02:53:28;10.00;99.90
8953;DHT22;4511;50.890;8.054;2023-04-24T02:55:56;10.10;99.90
8953;DHT22;4511;50.890;8.054;2023-04-24T02:58:23;10.10;99.90
8953;DHT22;4511;50.890;8.054;2023-04-24T03:00:53;10.10;99.90
8953;DHT22;4511;50.890;8.054;2023-04-24T03:03:20;10.10;99.90
8953;DHT22;4511;50.890;8.054;2023-04-24T03:05:48;10.10;99.90
8953;DHT22;4511;50.890;8.054;2023-04-24T03:08:15;10.10;99.90
8953;DHT22;4511;50.890;8.054;2023-04-24T03:10:43;9.90;99.90
8953;DHT22;4511;50.890;8.054;2023-04-24T03:13:09;9.90;99.90
8953;DHT22;4511;50.890;8.054;2023-04-24T03:15:36;9.90;99.90
8953;DHT22;4511;50.890;8.054;2023-04-24T03:18:03;9.80;99.90
8953;DHT22;4511;50.890;8.054;2023-04-24T03:20:30;9.70;99.90
8953;DHT22;4511;50.890;8.054;2023-04-24T03:22:58;9.30;99.90
8953;DHT22;4511;50.890;8.054;2023-04-24T03:25:25;9.40;99.90
8953;DHT22;4511;50.890;8.054;2023-04-24T03:27:51;9.50;99.90
8953;DHT22;4511;50.890;8.054;2023-04-24T03:30:20;9.40;99.90
8953;DHT22;4511;50.890;8.054;2023-04-24T03:32:47;9.40;99.90
8953;DHT22;4511;50.890;8.054;2023-04-24T03:35:13;9.40;99.90
8953;DHT22;4511;50.890;8.054;2023-04-24T03:37:40;9.30;99.90
8953;DHT22;4511;50.890;8.054;2023-04-24T03:40:09;9.40;99.90
8953;DHT22;4511;50.890;8.054;2023-04-24T03:42:36;9.40;99.90
8953;DHT22;4511;50.890;8.054;2023-04-24T03:45:03;9.30;99.90
8953;DHT22;4511;50.890;8.054;2023-04-24T03:47:30;9.20;99.90
8953;DHT22;4511;50.890;8.054;2023-04-24T03:49:57;9.20;99.90
8953;DHT22;4511;50.890;8.054;2023-04-24T03:52:23;9.00;99.90
8953;DHT22;4511;50.890;8.054;2023-04-24T03:54:50;8.80;99.90
8953;DHT22;4511;50.890;8.054;2023-04-24T03:57:18;8.80;99.90
8953;DHT22;4511;50.890;8.054;2023-04-24T03:59:45;8.60;99.90
8953;DHT22;4511;50.890;8.054;2023-04-24T04:02:12;8.60;99.90
8953;DHT22;4511;50.890;8.054;2023-04-24T04:04:38;8.60;99.90
8953;DHT22;4511;50.890;8.054;2023-04-24T04:07:05;8.60;99.90
8953;DHT22;4511;50.890;8.054;2023-04-24T04:09:33;8.50;99.90
8953;DHT22;4511;50.890;8.054;2023-04-24T04:12:00;8.60;99.90
8953;DHT22;4511;50.890;8.054;2023-04-24T04:14:28;8.60;99.90
8953;DHT22;4511;50.890;8.054;2023-04-24T04:16:55;8.60;99.90
8953;DHT22;4511;50.890;8.054;2023-04-24T04:19:21;8.50;99.90
8953;DHT22;4511;50.890;8.054;2023-04-24T04:21:48;8.50;99.90
8953;DHT22;4511;50.890;8.054;2023-04-24T04:24:18;8.60;99.90
8953;DHT22;4511;50.890;8.054;2023-04-24T04:26:46;8.50;99.90
8953;DHT22;4511;50.890;8.054;2023-04-24T04:29:13;8.40;99.90
8953;DHT22;4511;50.890;8.054;2023-04-24T04:31:42;8.40;99.90
8953;DHT22;4511;50.890;8.054;2023-04-24T04:34:08;8.30;99.90
8953;DHT22;4511;50.890;8.054;2023-04-24T04:36:35;8.30;99.90
8953;DHT22;4511;50.890;8.054;2023-04-24T04:39:02;8.40;99.90
8953;DHT22;4511;50.890;8.054;2023-04-24T04:41:29;8.20;99.90
8953;DHT22;4511;50.890;8.054;2023-04-24T04:43:56;8.20;99.90
8953;DHT22;4511;50.890;8.054;2023-04-24T04:46:24;8.30;99.90
8953;DHT22;4511;50.890;8.054;2023-04-24T04:48:52;8.20;99.90
8953;DHT22;4511;50.890;8.054;2023-04-24T04:51:19;8.30;99.90
8953;DHT22;4511;50.890;8.054;2023-04-24T04:53:46;8.30;99.90
8953;DHT22;4511;50.890;8.054;2023-04-24T04:56:13;8.40;99.90
8953;DHT22;4511;50.890;8.054;2023-04-24T04:58:39;8.50;99.90
8953;DHT22;4511;50.890;8.054;2023-04-24T05:01:06;8.50;99.90
8953;DHT22;4511;50.890;8.054;2023-04-24T05:03:33;8.50;99.90
8953;DHT22;4511;50.890;8.054;2023-04-24T05:06:01;8.80;99.90
8953;DHT22;4511;50.890;8.054;2023-04-24T05:08:28;8.80;99.90
8953;DHT22;4511;50.890;8.054;2023-04-24T05:10:55;8.80;99.90
8953;DHT22;4511;50.890;8.054;2023-04-24T05:13:22;8.70;99.90
8953;DHT22;4511;50.890;8.054;2023-04-24T05:15:48;8.70;99.90
8953;DHT22;4511;50.890;8.054;2023-04-24T05:18:15;8.70;99.90
8953;DHT22;4511;50.890;8.054;2023-04-24T05:20:42;8.70;99.90
8953;DHT22;4511;50.890;8.054;2023-04-24T05:23:10;8.70;99.90
8953;DHT22;4511;50.890;8.054;2023-04-24T05:25:37;8.60;99.90
8953;DHT22;4511;50.890;8.054;2023-04-24T05:28:05;8.50;99.90
8953;DHT22;4511;50.890;8.054;2023-04-24T05:30:32;8.50;99.90
8953;DHT22;4511;50.890;8.054;2023-04-24T05:32:59;8.60;99.90
8953;DHT22;4511;50.890;8.054;2023-04-24T05:35:25;8.70;99.90
8953;DHT22;4511;50.890;8.054;2023-04-24T05:37:52;8.70;99.90
8953;DHT22;4511;50.890;8.054;2023-04-24T05:40:20;8.70;99.90
8953;DHT22;4511;50.890;8.054;2023-04-24T05:42:47;8.70;99.90
8953;DHT22;4511;50.890;8.054;2023-04-24T05:45:14;8.70;99.90
8953;DHT22;4511;50.890;8.054;2023-04-24T05:47:42;8.80;99.90
8953;DHT22;4511;50.890;8.054;2023-04-24T05:50:09;8.80;99.90
8953;DHT22;4511;50.890;8.054;2023-04-24T05:52:36;8.80;99.90
8953;DHT22;4511;50.890;8.054;2023-04-24T05:55:03;8.70;99.90
8953;DHT22;4511;50.890;8.054;2023-04-24T05:57:32;8.70;99.90
8953;DHT22;4511;50.890;8.054;2023-04-24T05:59:58;8.80;99.90
8953;DHT22;4511;50.890;8.054;2023-04-24T06:02:25;8.80;99.90
8953;DHT22;4511;50.890;8.054;2023-04-24T06:04:52;8.80;99.90
8953;DHT22;4511;50.890;8.054;2023-04-24T06:07:19;8.80;99.90
8953;DHT22;4511;50.890;8.054;2023-04-24T06:09:46;8.90;99.90
8953;DHT22;4511;50.890;8.054;2023-04-24T06:12:13;8.90;99.90
8953;DHT22;4511;50.890;8.054;2023-04-24T06:14:41;8.90;99.90
8953;DHT22;4511;50.890;8.054;2023-04-24T06:17:08;8.70;99.90
8953;DHT22;4511;50.890;8.054;2023-04-24T06:19:35;8.90;99.90
8953;DHT22;4511;50.890;8.054;2023-04-24T06:22:01;8.90;99.90
8953;DHT22;4511;50.890;8.054;2023-04-24T06:24:28;8.90;99.90
8953;DHT22;4511;50.890;8.054;2023-04-24T06:26:55;9.00;99.90
8953;DHT22;4511;50.890;8.054;2023-04-24T06:29:24;9.00;99.90
8953;DHT22;4511;50.890;8.054;2023-04-24T06:31:52;8.90;99.90
8953;DHT22;4511;50.890;8.054;2023-04-24T06:34:19;8.80;99.90
8953;DHT22;4511;50.890;8.054;2023-04-24T06:36:46;8.90;99.90
8953;DHT22;4511;50.890;8.054;2023-04-24T06:39:13;8.90;99.90
8953;DHT22;4511;50.890;8.054;2023-04-24T06:41:40;8.90;99.90
8953;DHT22;4511;50.890;8.054;2023-04-24T06:44:07;9.00;99.90
8953;DHT22;4511;50.890;8.054;2023-04-24T06:46:34;9.00;99.90
8953;DHT22;4511;50.890;8.054;2023-04-24T06:49:02;9.10;99.90
8953;DHT22;4511;50.890;8.054;2023-04-24T06:51:28;9.00;99.90
8953;DHT22;4511;50.890;8.054;2023-04-24T06:53:56;9.00;99.90
8953;DHT22;4511;50.890;8.054;2023-04-24T06:56:22;9.00;99.90
8953;DHT22;4511;50.890;8.054;2023-04-24T06:58:49;9.00;99.90
8953;DHT22;4511;50.890;8.054;2023-04-24T07:01:16;9.00;99.90
8953;DHT22;4511;50.890;8.054;2023-04-24T07:03:43;9.00;99.90
8953;DHT22;4511;50.890;8.054;2023-04-24T07:06:11;9.00;99.90
8953;DHT22;4511;50.890;8.054;2023-04-24T07:08:38;9.10;99.90
8953;DHT22;4511;50.890;8.054;2023-04-24T07:11:07;9.20;99.90
8953;DHT22;4511;50.890;8.054;2023-04-24T07:13:33;9.10;99.90
8953;DHT22;4511;50.890;8.054;2023-04-24T07:16:00;9.10;99.90
8953;DHT22;4511;50.890;8.054;2023-04-24T07:18:27;9.00;99.90
8953;DHT22;4511;50.890;8.054;2023-04-24T07:20:54;9.00;99.90
8953;DHT22;4511;50.890;8.054;2023-04-24T07:23:23;9.10;99.90
8953;DHT22;4511;50.890;8.054;2023-04-24T07:25:50;9.10;99.90
8953;DHT22;4511;50.890;8.054;2023-04-24T07:28:16;9.10;99.90
8953;DHT22;4511;50.890;8.054;2023-04-24T07:30:43;9.10;99.90
8953;DHT22;4511;50.890;8.054;2023-04-24T07:33:10;9.10;99.90
8953;DHT22;4511;50.890;8.054;2023-04-24T07:35:38;9.20;99.90
8953;DHT22;4511;50.890;8.054;2023-04-24T07:38:05;9.20;99.90
8953;DHT22;4511;50.890;8.054;2023-04-24T07:40:33;9.20;99.90
8953;DHT22;4511;50.890;8.054;2023-04-24T07:43:00;9.20;99.90
8953;DHT22;4511;50.890;8.054;2023-04-24T07:45:27;9.30;99.90
8953;DHT22;4511;50.890;8.054;2023-04-24T07:47:53;9.30;99.90
8953;DHT22;4511;50.890;8.054;2023-04-24T07:50:20;9.40;99.90
8953;DHT22;4511;50.890;8.054;2023-04-24T07:52:47;9.40;99.90
8953;DHT22;4511;50.890;8.054;2023-04-24T07:55:14;9.40;99.90
8953;DHT22;4511;50.890;8.054;2023-04-24T07:57:42;9.30;99.90
8953;DHT22;4511;50.890;8.054;2023-04-24T08:00:10;9.20;99.90
8953;DHT22;4511;50.890;8.054;2023-04-24T08:02:37;9.00;99.90
8953;DHT22;4511;50.890;8.054;2023-04-24T08:05:05;8.80;99.90
8953;DHT22;4511;50.890;8.054;2023-04-24T08:07:31;8.80;99.90
8953;DHT22;4511;50.890;8.054;2023-04-24T08:09:58;8.80;99.90
8953;DHT22;4511;50.890;8.054;2023-04-24T08:12:25;8.90;99.90
8953;DHT22;4511;50.890;8.054;2023-04-24T08:14:53;8.70;99.90
8953;DHT22;4511;50.890;8.054;2023-04-24T08:17:20;8.90;99.90
8953;DHT22;4511;50.890;8.054;2023-04-24T08:19:47;8.80;99.90
8953;DHT22;4511;50.890;8.054;2023-04-24T08:22:15;8.60;99.90
8953;DHT22;4511;50.890;8.054;2023-04-24T08:24:41;8.70;99.90
8953;DHT22;4511;50.890;8.054;2023-04-24T08:27:09;8.50;99.90
8953;DHT22;4511;50.890;8.054;2023-04-24T08:29:36;8.50;99.90
8953;DHT22;4511;50.890;8.054;2023-04-24T08:32:04;8.50;99.90
8953;DHT22;4511;50.890;8.054;2023-04-24T08:34:31;8.40;99.90
8953;DHT22;4511;50.890;8.054;2023-04-24T08:36:57;8.40;99.90
8953;DHT22;4511;50.890;8.054;2023-04-24T08:39:24;8.40;99.90
8953;DHT22;4511;50.890;8.054;2023-04-24T08:41:52;8.40;99.90
8953;DHT22;4511;50.890;8.054;2023-04-24T08:44:20;8.30;99.90
8953;DHT22;4511;50.890;8.054;2023-04-24T08:46:48;8.40;99.90
8953;DHT22;4511;50.890;8.054;2023-04-24T08:49:18;8.30;99.90
8953;DHT22;4511;50.890;8.054;2023-04-24T08:51:45;8.50;99.90
8953;DHT22;4511;50.890;8.054;2023-04-24T08:54:13;8.40;99.90
8953;DHT22;4511;50.890;8.054;2023-04-24T08:56:44;8.40;99.90
8953;DHT22;4511;50.890;8.054;2023-04-24T08:59:11;8.30;99.90
8953;DHT22;4511;50.890;8.054;2023-04-24T09:01:40;8.30;99.90
8953;DHT22;4511;50.890;8.054;2023-04-24T09:04:08;8.40;99.90
8953;DHT22;4511;50.890;8.054;2023-04-24T09:06:37;8.30;99.90
8953;DHT22;4511;50.890;8.054;2023-04-24T09:09:04;8.30;99.90
8953;DHT22;4511;50.890;8.054;2023-04-24T09:11:31;8.30;99.90
8953;DHT22;4511;50.890;8.054;2023-04-24T09:13:59;8.10;99.90
8953;DHT22;4511;50.890;8.054;2023-04-24T09:16:27;8.00;99.90
8953;DHT22;4511;50.890;8.054;2023-04-24T09:18:55;7.90;99.90
8953;DHT22;4511;50.890;8.054;2023-04-24T09:21:22;7.90;99.90
8953;DHT22;4511;50.890;8.054;2023-04-24T09:24:00;7.90;99.90
8953;DHT22;4511;50.890;8.054;2023-04-24T09:26:29;7.90;99.90
8953;DHT22;4511;50.890;8.054;2023-04-24T09:28:58;7.80;99.90
8953;DHT22;4511;50.890;8.054;2023-04-24T09:31:27;7.70;99.90
8953;DHT22;4511;50.890;8.054;2023-04-24T09:33:56;7.50;99.90
8953;DHT22;4511;50.890;8.054;2023-04-24T09:36:30;7.40;99.90
8953;DHT22;4511;50.890;8.054;2023-04-24T09:39:01;7.40;99.90
8953;DHT22;4511;50.890;8.054;2023-04-24T09:41:28;7.20;99.90
8953;DHT22;4511;50.890;8.054;2023-04-24T09:43:55;7.30;99.90
8953;DHT22;4511;50.890;8.054;2023-04-24T09:46:29;7.30;99.90
8953;DHT22;4511;50.890;8.054;2023-04-24T09:48:57;7.30;99.90
8953;DHT22;4511;50.890;8.054;2023-04-24T09:51:34;7.20;99.90
8953;DHT22;4511;50.890;8.054;2023-04-24T09:54:11;6.90;99.90
8953;DHT22;4511;50.890;8.054;2023-04-24T09:56:42;6.80;99.90
8953;DHT22;4511;50.890;8.054;2023-04-24T09:59:09;6.90;99.90
8953;DHT22;4511;50.890;8.054;2023-04-24T10:01:36;6.90;99.90
8953;DHT22;4511;50.890;8.054;2023-04-24T10:04:03;6.10;99.90
8953;DHT22;4511;50.890;8.054;2023-04-24T10:06:33;6.30;99.90
8953;DHT22;4511;50.890;8.054;2023-04-24T10:09:00;6.40;99.90
8953;DHT22;4511;50.890;8.054;2023-04-24T10:11:28;6.40;99.90
8953;DHT22;4511;50.890;8.054;2023-04-24T10:13:56;6.30;99.90
8953;DHT22;4511;50.890;8.054;2023-04-24T10:16:23;6.30;99.90
8953;DHT22;4511;50.890;8.054;2023-04-24T10:18:52;6.40;99.90
8953;DHT22;4511;50.890;8.054;2023-04-24T10:21:19;6.50;99.90
8953;DHT22;4511;50.890;8.054;2023-04-24T10:23:48;6.60;99.90
8953;DHT22;4511;50.890;8.054;2023-04-24T10:26:15;6.60;99.90
8953;DHT22;4511;50.890;8.054;2023-04-24T10:28:46;6.60;99.90
8953;DHT22;4511;50.890;8.054;2023-04-24T10:31:13;6.50;99.90
8953;DHT22;4511;50.890;8.054;2023-04-24T10:33:41;6.60;99.90
8953;DHT22;4511;50.890;8.054;2023-04-24T10:36:09;6.70;99.90
8953;DHT22;4511;50.890;8.054;2023-04-24T10:38:38;6.80;99.90
8953;DHT22;4511;50.890;8.054;2023-04-24T10:41:07;6.90;99.90
8953;DHT22;4511;50.890;8.054;2023-04-24T10:43:36;7.00;99.90
8953;DHT22;4511;50.890;8.054;2023-04-24T10:46:05;6.90;99.90
8953;DHT22;4511;50.890;8.054;2023-04-24T10:48:32;7.10;99.90
8953;DHT22;4511;50.890;8.054;2023-04-24T10:50:59;7.10;99.90
8953;DHT22;4511;50.890;8.054;2023-04-24T10:53:28;7.30;99.90
8953;DHT22;4511;50.890;8.054;2023-04-24T10:55:58;7.30;99.90
8953;DHT22;4511;50.890;8.054;2023-04-24T10:58:37;7.30;99.90
8953;DHT22;4511;50.890;8.054;2023-04-24T11:01:07;7.20;99.90
8953;DHT22;4511;50.890;8.054;2023-04-24T11:03:34;7.30;99.90
8953;DHT22;4511;50.890;8.054;2023-04-24T11:06:03;7.30;99.90
8953;DHT22;4511;50.890;8.054;2023-04-24T11:08:32;7.50;99.90
8953;DHT22;4511;50.890;8.054;2023-04-24T11:11:02;7.60;99.90
8953;DHT22;4511;50.890;8.054;2023-04-24T11:14:01;7.70;99.90
8953;DHT22;4511;50.890;8.054;2023-04-24T11:16:30;7.80;99.90
8953;DHT22;4511;50.890;8.054;2023-04-24T11:19:05;7.90;99.90
8953;DHT22;4511;50.890;8.054;2023-04-24T11:21:39;7.90;99.90
8953;DHT22;4511;50.890;8.054;2023-04-24T11:24:24;7.80;99.90
8953;DHT22;4511;50.890;8.054;2023-04-24T11:26:51;7.90;99.90
8953;DHT22;4511;50.890;8.054;2023-04-24T11:29:19;7.60;99.90
8953;DHT22;4511;50.890;8.054;2023-04-24T11:31:48;7.70;99.90
8953;DHT22;4511;50.890;8.054;2023-04-24T11:34:17;7.90;99.90
8953;DHT22;4511;50.890;8.054;2023-04-24T11:36:44;7.90;99.90
8953;DHT22;4511;50.890;8.054;2023-04-24T11:39:12;8.00;99.90
8953;DHT22;4511;50.890;8.054;2023-04-24T11:41:38;8.20;99.90
8953;DHT22;4511;50.890;8.054;2023-04-24T11:44:07;8.20;99.90
8953;DHT22;4511;50.890;8.054;2023-04-24T11:46:34;8.30;99.90
8953;DHT22;4511;50.890;8.054;2023-04-24T11:49:04;8.40;99.90
8953;DHT22;4511;50.890;8.054;2023-04-24T11:51:31;8.40;99.90
8953;DHT22;4511;50.890;8.054;2023-04-24T11:53:58;8.40;99.90
8953;DHT22;4511;50.890;8.054;2023-04-24T11:56:25;8.30;99.90
8953;DHT22;4511;50.890;8.054;2023-04-24T11:58:52;8.20;99.90
8953;DHT22;4511;50.890;8.054;2023-04-24T12:01:20;8.30;99.90
8953;DHT22;4511;50.890;8.054;2023-04-24T12:03:48;8.40;99.90
8953;DHT22;4511;50.890;8.054;2023-04-24T12:06:17;8.40;99.90
8953;DHT22;4511;50.890;8.054;2023-04-24T12:08:48;8.30;99.90
8953;DHT22;4511;50.890;8.054;2023-04-24T12:11:16;8.10;99.90
8953;DHT22;4511;50.890;8.054;2023-04-24T12:13:44;8.20;99.90
8953;DHT22;4511;50.890;8.054;2023-04-24T12:16:12;8.30;99.90
8953;DHT22;4511;50.890;8.054;2023-04-24T12:18:43;8.40;99.90
8953;DHT22;4511;50.890;8.054;2023-04-24T12:21:22;8.40;99.90
8953;DHT22;4511;50.890;8.054;2023-04-24T12:23:54;8.30;99.90
8953;DHT22;4511;50.890;8.054;2023-04-24T12:26:21;8.50;99.90
8953;DHT22;4511;50.890;8.054;2023-04-24T12:28:49;8.60;99.90
8953;DHT22;4511;50.890;8.054;2023-04-24T12:31:17;8.60;99.90
8953;DHT22;4511;50.890;8.054;2023-04-24T12:33:43;8.70;99.90
8953;DHT22;4511;50.890;8.054;2023-04-24T12:36:11;8.90;99.90
8953;DHT22;4511;50.890;8.054;2023-04-24T12:38:43;9.00;99.90
8953;DHT22;4511;50.890;8.054;2023-04-24T12:41:13;9.10;99.90
8953;DHT22;4511;50.890;8.054;2023-04-24T12:43:51;8.90;99.90
8953;DHT22;4511;50.890;8.054;2023-04-24T12:46:18;8.80;99.90
8953;DHT22;4511;50.890;8.054;2023-04-24T12:48:45;8.80;99.90
8953;DHT22;4511;50.890;8.054;2023-04-24T12:51:12;8.90;99.90
8953;DHT22;4511;50.890;8.054;2023-04-24T12:53:39;8.60;99.90
8953;DHT22;4511;50.890;8.054;2023-04-24T12:56:07;8.80;99.90
8953;DHT22;4511;50.890;8.054;2023-04-24T12:58:33;8.80;99.90
8953;DHT22;4511;50.890;8.054;2023-04-24T13:01:00;8.70;99.90
8953;DHT22;4511;50.890;8.054;2023-04-24T13:03:28;8.80;99.90
8953;DHT22;4511;50.890;8.054;2023-04-24T13:05:54;8.90;99.90
8953;DHT22;4511;50.890;8.054;2023-04-24T13:08:21;8.80;99.90
8953;DHT22;4511;50.890;8.054;2023-04-24T13:10:48;8.90;99.90
8953;DHT22;4511;50.890;8.054;2023-04-24T13:13:17;8.90;99.90
8953;DHT22;4511;50.890;8.054;2023-04-24T13:15:44;8.80;99.90
8953;DHT22;4511;50.890;8.054;2023-04-24T13:18:11;8.80;99.90
8953;DHT22;4511;50.890;8.054;2023-04-24T13:20:38;8.60;99.90
8953;DHT22;4511;50.890;8.054;2023-04-24T13:23:06;8.70;99.90
8953;DHT22;4511;50.890;8.054;2023-04-24T13:25:35;8.80;99.90
8953;DHT22;4511;50.890;8.054;2023-04-24T13:28:02;9.10;99.90
8953;DHT22;4511;50.890;8.054;2023-04-24T13:30:31;9.20;99.90
8953;DHT22;4511;50.890;8.054;2023-04-24T13:32:57;9.30;99.90
8953;DHT22;4511;50.890;8.054;2023-04-24T13:35:24;9.40;99.90
8953;DHT22;4511;50.890;8.054;2023-04-24T13:37:51;9.50;99.90
8953;DHT22;4511;50.890;8.054;2023-04-24T13:40:18;10.30;99.90
8953;DHT22;4511;50.890;8.054;2023-04-24T13:42:45;11.10;99.90
8953;DHT22;4511;50.890;8.054;2023-04-24T13:45:11;10.70;99.90
8953;DHT22;4511;50.890;8.054;2023-04-24T13:47:40;10.70;99.90
8953;DHT22;4511;50.890;8.054;2023-04-24T13:50:10;10.60;99.90
8953;DHT22;4511;50.890;8.054;2023-04-24T13:52:36;10.00;99.90
8953;DHT22;4511;50.890;8.054;2023-04-24T13:55:04;9.80;99.90
8953;DHT22;4511;50.890;8.054;2023-04-24T13:57:31;9.40;99.90
8953;DHT22;4511;50.890;8.054;2023-04-24T13:59:58;9.30;99.90
8953;DHT22;4511;50.890;8.054;2023-04-24T14:02:26;9.20;99.90
8953;DHT22;4511;50.890;8.054;2023-04-24T14:04:54;9.10;99.90
8953;DHT22;4511;50.890;8.054;2023-04-24T14:07:21;8.90;99.90
8953;DHT22;4511;50.890;8.054;2023-04-24T14:09:48;8.90;99.90
8953;DHT22;4511;50.890;8.054;2023-04-24T14:12:15;8.80;99.90
8953;DHT22;4511;50.890;8.054;2023-04-24T14:14:45;9.10;99.90
8953;DHT22;4511;50.890;8.054;2023-04-24T14:17:12;9.20;99.90
8953;DHT22;4511;50.890;8.054;2023-04-24T14:19:39;9.20;99.90
8953;DHT22;4511;50.890;8.054;2023-04-24T14:22:07;9.50;99.90
8953;DHT22;4511;50.890;8.054;2023-04-24T14:24:33;10.40;99.90
8953;DHT22;4511;50.890;8.054;2023-04-24T14:27:00;10.50;99.90
8953;DHT22;4511;50.890;8.054;2023-04-24T14:29:27;10.60;99.90
8953;DHT22;4511;50.890;8.054;2023-04-24T14:31:54;10.80;99.90
8953;DHT22;4511;50.890;8.054;2023-04-24T14:34:20;10.40;99.90
8953;DHT22;4511;50.890;8.054;2023-04-24T14:36:47;10.10;99.90
8953;DHT22;4511;50.890;8.054;2023-04-24T14:39:15;10.10;99.90
8953;DHT22;4511;50.890;8.054;2023-04-24T14:41:42;10.00;99.90
8953;DHT22;4511;50.890;8.054;2023-04-24T14:44:09;9.90;99.90
8953;DHT22;4511;50.890;8.054;2023-04-24T14:46:36;10.10;99.90
8953;DHT22;4511;50.890;8.054;2023-04-24T14:49:02;10.10;99.90
8953;DHT22;4511;50.890;8.054;2023-04-24T14:51:29;10.00;99.90
8953;DHT22;4511;50.890;8.054;2023-04-24T14:53:56;10.00;99.90
8953;DHT22;4511;50.890;8.054;2023-04-24T14:56:24;9.70;99.90
8953;DHT22;4511;50.890;8.054;2023-04-24T14:58:51;9.70;99.90
8953;DHT22;4511;50.890;8.054;2023-04-24T15:01:18;9.70;99.90
8953;DHT22;4511;50.890;8.054;2023-04-24T15:03:45;9.80;99.90
8953;DHT22;4511;50.890;8.054;2023-04-24T15:06:12;10.00;99.90
8953;DHT22;4511;50.890;8.054;2023-04-24T15:08:39;10.10;99.90
8953;DHT22;4511;50.890;8.054;2023-04-24T15:11:06;10.30;99.90
8953;DHT22;4511;50.890;8.054;2023-04-24T15:13:34;10.60;99.90
8953;DHT22;4511;50.890;8.054;2023-04-24T15:16:00;10.50;99.90
8953;DHT22;4511;50.890;8.054;2023-04-24T15:18:27;10.50;99.90
8953;DHT22;4511;50.890;8.054;2023-04-24T15:20:55;10.40;99.90
8953;DHT22;4511;50.890;8.054;2023-04-24T15:23:21;10.20;99.90
8953;DHT22;4511;50.890;8.054;2023-04-24T15:25:48;10.10;99.90
8953;DHT22;4511;50.890;8.054;2023-04-24T15:28:15;10.00;99.90
8953;DHT22;4511;50.890;8.054;2023-04-24T15:30:44;10.00;99.90
8953;DHT22;4511;50.890;8.054;2023-04-24T15:33:11;10.10;99.90
8953;DHT22;4511;50.890;8.054;2023-04-24T15:35:38;10.20;99.90
8953;DHT22;4511;50.890;8.054;2023-04-24T15:38:05;11.30;99.90
8953;DHT22;4511;50.890;8.054;2023-04-24T15:40:32;12.50;99.90
8953;DHT22;4511;50.890;8.054;2023-04-24T15:42:59;12.70;99.90
8953;DHT22;4511;50.890;8.054;2023-04-24T15:45:26;12.70;99.90
8953;DHT22;4511;50.890;8.054;2023-04-24T15:47:54;11.90;99.90
8953;DHT22;4511;50.890;8.054;2023-04-24T15:50:21;12.00;99.90
8953;DHT22;4511;50.890;8.054;2023-04-24T15:52:49;12.80;99.90
8953;DHT22;4511;50.890;8.054;2023-04-24T15:55:15;13.90;99.90
8953;DHT22;4511;50.890;8.054;2023-04-24T15:57:42;14.00;99.90
8953;DHT22;4511;50.890;8.054;2023-04-24T16:00:10;14.10;99.90
8953;DHT22;4511;50.890;8.054;2023-04-24T16:02:38;14.00;99.90
8953;DHT22;4511;50.890;8.054;2023-04-24T16:05:07;14.50;99.90
8953;DHT22;4511;50.890;8.054;2023-04-24T16:07:34;15.10;99.90
8953;DHT22;4511;50.890;8.054;2023-04-24T16:10:01;14.60;99.90
8953;DHT22;4511;50.890;8.054;2023-04-24T16:12:28;15.20;99.90
8953;DHT22;4511;50.890;8.054;2023-04-24T16:14:54;16.00;99.90